sensor_id;sensor_type;location;lat;lon;timestamp;temperature;humidity
61000;SHT31;46879;45.658;11.814;2023-02-28T00:00:22;16.65;66.51
61000;SHT31;46879;45.658;11.814;2023-02-28T00:05:25;16.63;66.56
61000;SHT31;46879;45.658;11.814;2023-02-28T00:10:29;16.63;66.75
61000;SHT31;46879;45.658;11.814;2023-02-28T00:15:30;16.64;66.64
61000;SHT31;46879;45.658;11.814;2023-02-28T00:20:31;16.64;66.85
61000;SHT31;46879;45.658;11.814;2023-02-28T00:25:31;16.64;67.03
61000;SHT31;46879;45.658;11.814;2023-02-28T00:30:32;16.63;66.90
61000;SHT31;46879;45.658;11.814;2023-02-28T00:35:32;16.61;67.05
61000;SHT31;46879;45.658;11.814;2023-02-28T00:40:33;16.60;67.17
61000;SHT31;46879;45.658;11.814;2023-02-28T00:45:34;16.61;67.21
61000;SHT31;46879;45.658;11.814;2023-02-28T00:50:35;16.60;67.32
61000;SHT31;46879;45.658;11.814;2023-02-28T00:55:36;16.61;67.19
61000;SHT31;46879;45.658;11.814;2023-02-28T01:00:36;16.60;67.27
61000;SHT31;46879;45.658;11.814;2023-02-28T01:05:37;16.60;67.35
61000;SHT31;46879;45.658;11.814;2023-02-28T01:10:38;16.59;67.44
61000;SHT31;46879;45.658;11.814;2023-02-28T01:15:43;16.59;67.50
61000;SHT31;46879;45.658;11.814;2023-02-28T01:20:46;16.59;67.23
61000;SHT31;46879;45.658;11.814;2023-02-28T01:25:47;16.61;67.56
61000;SHT31;46879;45.658;11.814;2023-02-28T01:30:49;16.57;67.56
61000;SHT31;46879;45.658;11.814;2023-02-28T01:35:50;16.57;67.53
61000;SHT31;46879;45.658;11.814;2023-02-28T01:40:57;16.56;67.53
61000;SHT31;46879;45.658;11.814;2023-02-28T01:45:58;16.56;67.59
61000;SHT31;46879;45.658;11.814;2023-02-28T01:51:05;16.56;67.53
61000;SHT31;46879;45.658;11.814;2023-02-28T01:56:07;16.56;67.54
61000;SHT31;46879;45.658;11.814;2023-02-28T02:01:08;16.54;67.59
61000;SHT31;46879;45.658;11.814;2023-02-28T02:06:09;16.56;67.70
61000;SHT31;46879;45.658;11.814;2023-02-28T02:11:11;16.56;67.91
61000;SHT31;46879;45.658;11.814;2023-02-28T02:33:15;16.53;67.99
61000;SHT31;46879;45.658;11.814;2023-02-28T02:38:42;16.53;68.10
61000;SHT31;46879;45.658;11.814;2023-02-28T02:44:24;16.53;68.14
61000;SHT31;46879;45.658;11.814;2023-02-28T02:49:32;16.53;68.20
61000;SHT31;46879;45.658;11.814;2023-02-28T02:54:40;16.53;68.15
61000;SHT31;46879;45.658;11.814;2023-02-28T02:59:42;16.53;68.23
61000;SHT31;46879;45.658;11.814;2023-02-28T03:04:48;16.52;68.15
61000;SHT31;46879;45.658;11.814;2023-02-28T03:09:56;16.52;68.11
61000;SHT31;46879;45.658;11.814;2023-02-28T03:31:09;16.50;68.26
61000;SHT31;46879;45.658;11.814;2023-02-28T03:36:15;16.50;68.24
61000;SHT31;46879;45.658;11.814;2023-02-28T03:41:21;16.52;68.26
61000;SHT31;46879;45.658;11.814;2023-02-28T03:46:25;16.50;68.17
61000;SHT31;46879;45.658;11.814;2023-02-28T03:51:28;16.47;68.30
61000;SHT31;46879;45.658;11.814;2023-02-28T03:56:54;16.50;68.42
61000;SHT31;46879;45.658;11.814;2023-02-28T04:01:57;16.52;68.35
61000;SHT31;46879;45.658;11.814;2023-02-28T04:07:08;16.49;68.43
61000;SHT31;46879;45.658;11.814;2023-02-28T04:12:09;16.50;68.28
61000;SHT31;46879;45.658;11.814;2023-02-28T04:17:09;16.47;68.42
61000;SHT31;46879;45.658;11.814;2023-02-28T04:22:10;16.47;68.46
61000;SHT31;46879;45.658;11.814;2023-02-28T04:27:11;16.47;68.46
61000;SHT31;46879;45.658;11.814;2023-02-28T04:32:11;16.46;68.35
61000;SHT31;46879;45.658;11.814;2023-02-28T04:37:12;16.46;68.34
61000;SHT31;46879;45.658;11.814;2023-02-28T04:42:13;16.47;68.32
61000;SHT31;46879;45.658;11.814;2023-02-28T04:47:13;16.44;68.39
61000;SHT31;46879;45.658;11.814;2023-02-28T04:52:14;16.43;68.30
61000;SHT31;46879;45.658;11.814;2023-02-28T04:57:15;16.44;68.39
61000;SHT31;46879;45.658;11.814;2023-02-28T05:02:15;16.43;68.35
61000;SHT31;46879;45.658;11.814;2023-02-28T05:07:16;16.44;68.36
61000;SHT31;46879;45.658;11.814;2023-02-28T05:12:16;16.43;68.42
61000;SHT31;46879;45.658;11.814;2023-02-28T05:17:17;16.43;68.44
61000;SHT31;46879;45.658;11.814;2023-02-28T05:22:17;16.42;68.47
61000;SHT31;46879;45.658;11.814;2023-02-28T05:27:18;16.42;68.38
61000;SHT31;46879;45.658;11.814;2023-02-28T05:32:19;16.42;68.58
61000;SHT31;46879;45.658;11.814;2023-02-28T05:37:19;16.43;68.48
61000;SHT31;46879;45.658;11.814;2023-02-28T05:42:20;16.42;68.58
61000;SHT31;46879;45.658;11.814;2023-02-28T05:47:20;16.42;68.76
61000;SHT31;46879;45.658;11.814;2023-02-28T05:52:21;16.42;68.71
61000;SHT31;46879;45.658;11.814;2023-02-28T05:57:22;16.43;68.63
61000;SHT31;46879;45.658;11.814;2023-02-28T06:02:23;16.40;68.71
61000;SHT31;46879;45.658;11.814;2023-02-28T06:07:23;16.43;68.78
61000;SHT31;46879;45.658;11.814;2023-02-28T06:12:24;16.42;68.82
61000;SHT31;46879;45.658;11.814;2023-02-28T06:17:24;16.40;68.85
61000;SHT31;46879;45.658;11.814;2023-02-28T06:22:25;16.40;68.91
61000;SHT31;46879;45.658;11.814;2023-02-28T06:27:26;16.42;69.05
61000;SHT31;46879;45.658;11.814;2023-02-28T06:32:26;16.42;69.15
61000;SHT31;46879;45.658;11.814;2023-02-28T06:37:32;16.46;69.18
61000;SHT31;46879;45.658;11.814;2023-02-28T06:42:37;16.49;67.74
61000;SHT31;46879;45.658;11.814;2023-02-28T06:47:40;16.54;67.43
61000;SHT31;46879;45.658;11.814;2023-02-28T06:52:40;16.54;66.87
61000;SHT31;46879;45.658;11.814;2023-02-28T06:57:41;16.54;65.85
61000;SHT31;46879;45.658;11.814;2023-02-28T07:02:42;16.63;66.23
61000;SHT31;46879;45.658;11.814;2023-02-28T07:07:42;16.61;65.98
61000;SHT31;46879;45.658;11.814;2023-02-28T07:12:45;16.60;65.85
61000;SHT31;46879;45.658;11.814;2023-02-28T07:17:46;16.63;64.52
61000;SHT31;46879;45.658;11.814;2023-02-28T07:22:46;16.59;63.91
61000;SHT31;46879;45.658;11.814;2023-02-28T07:27:52;16.59;63.66
61000;SHT31;46879;45.658;11.814;2023-02-28T07:32:53;16.60;63.33
61000;SHT31;46879;45.658;11.814;2023-02-28T07:37:58;16.60;63.25
61000;SHT31;46879;45.658;11.814;2023-02-28T07:43:00;16.60;62.81
61000;SHT31;46879;45.658;11.814;2023-02-28T07:48:01;16.57;62.75
61000;SHT31;46879;45.658;11.814;2023-02-28T07:53:01;16.59;62.74
61000;SHT31;46879;45.658;11.814;2023-02-28T07:58:02;16.57;62.76
61000;SHT31;46879;45.658;11.814;2023-02-28T08:03:03;16.56;62.60
61000;SHT31;46879;45.658;11.814;2023-02-28T08:08:04;16.59;62.33
61000;SHT31;46879;45.658;11.814;2023-02-28T08:13:04;16.59;62.35
61000;SHT31;46879;45.658;11.814;2023-02-28T08:18:05;16.59;62.19
61000;SHT31;46879;45.658;11.814;2023-02-28T08:23:05;16.59;62.13
61000;SHT31;46879;45.658;11.814;2023-02-28T08:28:06;16.57;61.77
61000;SHT31;46879;45.658;11.814;2023-02-28T08:33:06;16.59;61.74
61000;SHT31;46879;45.658;11.814;2023-02-28T08:38:07;16.57;61.62
61000;SHT31;46879;45.658;11.814;2023-02-28T08:43:08;16.60;61.57
61000;SHT31;46879;45.658;11.814;2023-02-28T08:48:08;16.56;61.69
61000;SHT31;46879;45.658;11.814;2023-02-28T08:53:09;16.57;61.65
61000;SHT31;46879;45.658;11.814;2023-02-28T08:58:09;16.57;61.48
61000;SHT31;46879;45.658;11.814;2023-02-28T09:03:10;16.56;61.39
61000;SHT31;46879;45.658;11.814;2023-02-28T09:08:10;16.57;61.19
61000;SHT31;46879;45.658;11.814;2023-02-28T09:13:11;16.56;61.27
61000;SHT31;46879;45.658;11.814;2023-02-28T09:18:12;16.56;61.19
61000;SHT31;46879;45.658;11.814;2023-02-28T09:23:13;16.56;60.97
61000;SHT31;46879;45.658;11.814;2023-02-28T09:28:14;16.56;60.80
61000;SHT31;46879;45.658;11.814;2023-02-28T09:33:17;16.57;60.65
61000;SHT31;46879;45.658;11.814;2023-02-28T09:38:20;16.56;60.67
61000;SHT31;46879;45.658;11.814;2023-02-28T09:43:25;16.57;60.56
61000;SHT31;46879;45.658;11.814;2023-02-28T09:48:35;16.56;60.55
61000;SHT31;46879;45.658;11.814;2023-02-28T09:53:38;16.53;60.50
61000;SHT31;46879;45.658;11.814;2023-02-28T10:04:18;16.56;60.44
61000;SHT31;46879;45.658;11.814;2023-02-28T10:09:26;16.54;60.45
61000;SHT31;46879;45.658;11.814;2023-02-28T10:14:31;16.57;60.26
61000;SHT31;46879;45.658;11.814;2023-02-28T10:24:52;16.57;60.22
61000;SHT31;46879;45.658;11.814;2023-02-28T10:29:57;16.56;60.20
61000;SHT31;46879;45.658;11.814;2023-02-28T10:35:21;16.60;59.80
61000;SHT31;46879;45.658;11.814;2023-02-28T10:45:23;16.56;59.74
61000;SHT31;46879;45.658;11.814;2023-02-28T10:50:36;16.56;59.41
61000;SHT31;46879;45.658;11.814;2023-02-28T10:55:38;16.53;59.67
61000;SHT31;46879;45.658;11.814;2023-02-28T11:00:40;16.54;59.59
61000;SHT31;46879;45.658;11.814;2023-02-28T11:05:41;16.54;59.46
61000;SHT31;46879;45.658;11.814;2023-02-28T11:10:59;16.56;59.48
61000;SHT31;46879;45.658;11.814;2023-02-28T11:16:07;16.52;59.53
61000;SHT31;46879;45.658;11.814;2023-02-28T11:21:09;16.53;59.41
61000;SHT31;46879;45.658;11.814;2023-02-28T11:26:10;16.52;59.50
61000;SHT31;46879;45.658;11.814;2023-02-28T11:36:23;16.52;59.38
61000;SHT31;46879;45.658;11.814;2023-02-28T11:47:05;16.50;59.40
61000;SHT31;46879;45.658;11.814;2023-02-28T12:08:44;16.50;59.21
61000;SHT31;46879;45.658;11.814;2023-02-28T12:19:28;16.52;59.31
61000;SHT31;46879;45.658;11.814;2023-02-28T12:30:34;16.47;59.37
61000;SHT31;46879;45.658;11.814;2023-02-28T12:36:01;16.49;59.42
61000;SHT31;46879;45.658;11.814;2023-02-28T12:41:18;16.47;59.31
61000;SHT31;46879;45.658;11.814;2023-02-28T12:46:42;16.49;59.63
61000;SHT31;46879;45.658;11.814;2023-02-28T12:51:44;16.52;59.52
61000;SHT31;46879;45.658;11.814;2023-02-28T13:13:30;16.49;59.75
61000;SHT31;46879;45.658;11.814;2023-02-28T13:18:32;16.49;59.75
61000;SHT31;46879;45.658;11.814;2023-02-28T14:06:30;16.46;59.96
61000;SHT31;46879;45.658;11.814;2023-02-28T14:11:34;16.47;59.90
61000;SHT31;46879;45.658;11.814;2023-02-28T14:16:47;16.47;59.77
61000;SHT31;46879;45.658;11.814;2023-02-28T14:38:40;16.50;60.16
61000;SHT31;46879;45.658;11.814;2023-02-28T14:43:57;16.46;60.30
61000;SHT31;46879;45.658;11.814;2023-02-28T14:48:58;16.49;60.32
61000;SHT31;46879;45.658;11.814;2023-02-28T14:54:01;16.46;60.47
61000;SHT31;46879;45.658;11.814;2023-02-28T14:59:03;16.49;60.42
61000;SHT31;46879;45.658;11.814;2023-02-28T15:04:06;16.49;60.42
61000;SHT31;46879;45.658;11.814;2023-02-28T15:09:18;16.49;60.45
61000;SHT31;46879;45.658;11.814;2023-02-28T15:14:20;16.50;60.57
61000;SHT31;46879;45.658;11.814;2023-02-28T15:19:30;16.49;60.75
61000;SHT31;46879;45.658;11.814;2023-02-28T15:24:44;16.49;60.79
61000;SHT31;46879;45.658;11.814;2023-02-28T15:29:50;16.49;60.82
61000;SHT31;46879;45.658;11.814;2023-02-28T15:34:51;16.52;60.92
61000;SHT31;46879;45.658;11.814;2023-02-28T15:39:53;16.50;60.82
61000;SHT31;46879;45.658;11.814;2023-02-28T15:44:55;16.47;60.92
61000;SHT31;46879;45.658;11.814;2023-02-28T15:50:00;16.47;60.99
61000;SHT31;46879;45.658;11.814;2023-02-28T16:00:23;16.52;60.98
61000;SHT31;46879;45.658;11.814;2023-02-28T16:05:30;16.47;60.94
61000;SHT31;46879;45.658;11.814;2023-02-28T16:10:32;16.49;60.93
61000;SHT31;46879;45.658;11.814;2023-02-28T16:15:38;16.50;60.62
61000;SHT31;46879;45.658;11.814;2023-02-28T16:20:42;16.52;60.40
61000;SHT31;46879;45.658;11.814;2023-02-28T16:25:45;16.52;60.29
61000;SHT31;46879;45.658;11.814;2023-02-28T16:30:46;16.50;60.40
61000;SHT31;46879;45.658;11.814;2023-02-28T16:35:47;16.52;60.17
61000;SHT31;46879;45.658;11.814;2023-02-28T16:40:50;16.53;59.89
61000;SHT31;46879;45.658;11.814;2023-02-28T16:45:55;16.52;59.83
61000;SHT31;46879;45.658;11.814;2023-02-28T16:50:58;16.53;59.73
61000;SHT31;46879;45.658;11.814;2023-02-28T16:55:58;16.52;59.86
61000;SHT31;46879;45.658;11.814;2023-02-28T17:01:03;16.54;59.95
61000;SHT31;46879;45.658;11.814;2023-02-28T17:06:04;16.53;59.93
61000;SHT31;46879;45.658;11.814;2023-02-28T17:11:05;16.54;59.76
61000;SHT31;46879;45.658;11.814;2023-02-28T17:16:29;16.52;59.69
61000;SHT31;46879;45.658;11.814;2023-02-28T17:21:29;16.52;59.89
61000;SHT31;46879;45.658;11.814;2023-02-28T17:26:30;16.53;59.89
61000;SHT31;46879;45.658;11.814;2023-02-28T17:31:31;16.50;59.89
61000;SHT31;46879;45.658;11.814;2023-02-28T17:36:33;16.49;59.74
61000;SHT31;46879;45.658;11.814;2023-02-28T17:41:35;16.52;59.41
61000;SHT31;46879;45.658;11.814;2023-02-28T17:46:36;16.52;59.50
61000;SHT31;46879;45.658;11.814;2023-02-28T17:51:36;16.50;59.24
61000;SHT31;46879;45.658;11.814;2023-02-28T17:56:37;16.54;59.24
61000;SHT31;46879;45.658;11.814;2023-02-28T18:01:38;16.53;58.96
61000;SHT31;46879;45.658;11.814;2023-02-28T18:06:44;16.54;58.97
61000;SHT31;46879;45.658;11.814;2023-02-28T18:11:52;16.59;59.67
61000;SHT31;46879;45.658;11.814;2023-02-28T18:16:54;16.64;60.63
61000;SHT31;46879;45.658;11.814;2023-02-28T18:21:55;16.65;61.10
61000;SHT31;46879;45.658;11.814;2023-02-28T18:26:56;16.67;61.21
61000;SHT31;46879;45.658;11.814;2023-02-28T18:31:56;16.64;61.18
61000;SHT31;46879;45.658;11.814;2023-02-28T18:36:57;16.64;61.04
61000;SHT31;46879;45.658;11.814;2023-02-28T18:41:57;16.64;60.94
61000;SHT31;46879;45.658;11.814;2023-02-28T18:46:58;16.64;61.11
61000;SHT31;46879;45.658;11.814;2023-02-28T18:51:59;16.65;61.46
61000;SHT31;46879;45.658;11.814;2023-02-28T18:57:00;16.65;61.62
61000;SHT31;46879;45.658;11.814;2023-02-28T19:02:00;16.67;61.70
61000;SHT31;46879;45.658;11.814;2023-02-28T19:07:01;16.64;61.75
61000;SHT31;46879;45.658;11.814;2023-02-28T19:12:02;16.65;61.79
61000;SHT31;46879;45.658;11.814;2023-02-28T19:17:02;16.77;65.31
61000;SHT31;46879;45.658;11.814;2023-02-28T19:22:03;16.81;67.01
61000;SHT31;46879;45.658;11.814;2023-02-28T19:27:03;16.77;66.98
61000;SHT31;46879;45.658;11.814;2023-02-28T19:32:04;16.75;67.15
61000;SHT31;46879;45.658;11.814;2023-02-28T19:37:05;16.72;67.80
61000;SHT31;46879;45.658;11.814;2023-02-28T19:42:11;16.75;67.77
61000;SHT31;46879;45.658;11.814;2023-02-28T19:47:12;16.75;67.49
61000;SHT31;46879;45.658;11.814;2023-02-28T19:52:13;16.72;67.59
61000;SHT31;46879;45.658;11.814;2023-02-28T19:57:14;16.74;67.35
61000;SHT31;46879;45.658;11.814;2023-02-28T20:02:18;16.74;67.42
61000;SHT31;46879;45.658;11.814;2023-02-28T20:07:19;16.75;67.23
61000;SHT31;46879;45.658;11.814;2023-02-28T20:12:19;16.75;67.22
61000;SHT31;46879;45.658;11.814;2023-02-28T20:17:23;16.74;67.29
61000;SHT31;46879;45.658;11.814;2023-02-28T20:22:23;16.74;67.28
61000;SHT31;46879;45.658;11.814;2023-02-28T20:27:24;16.72;67.16
61000;SHT31;46879;45.658;11.814;2023-02-28T20:32:25;16.72;67.16
61000;SHT31;46879;45.658;11.814;2023-02-28T20:37:26;16.74;67.21
61000;SHT31;46879;45.658;11.814;2023-02-28T20:42:27;16.72;67.03
61000;SHT31;46879;45.658;11.814;2023-02-28T20:47:28;16.74;67.14
61000;SHT31;46879;45.658;11.814;2023-02-28T20:52:28;16.71;66.64
61000;SHT31;46879;45.658;11.814;2023-02-28T20:57:29;16.68;66.16
61000;SHT31;46879;45.658;11.814;2023-02-28T21:02:30;16.85;65.28
61000;SHT31;46879;45.658;11.814;2023-02-28T21:07:30;16.88;65.66
61000;SHT31;46879;45.658;11.814;2023-02-28T21:12:31;16.84;64.88
61000;SHT31;46879;45.658;11.814;2023-02-28T21:17:32;16.82;64.57
61000;SHT31;46879;45.658;11.814;2023-02-28T21:22:32;16.78;64.71
61000;SHT31;46879;45.658;11.814;2023-02-28T21:27:33;16.77;64.97
61000;SHT31;46879;45.658;11.814;2023-02-28T21:32:34;16.78;65.03
61000;SHT31;46879;45.658;11.814;2023-02-28T21:37:37;16.74;65.01
61000;SHT31;46879;45.658;11.814;2023-02-28T21:42:37;16.75;65.03
61000;SHT31;46879;45.658;11.814;2023-02-28T21:47:38;16.74;65.05
61000;SHT31;46879;45.658;11.814;2023-02-28T21:52:39;16.72;64.99
61000;SHT31;46879;45.658;11.814;2023-02-28T21:57:40;16.74;64.94
61000;SHT31;46879;45.658;11.814;2023-02-28T22:02:41;16.72;64.86
61000;SHT31;46879;45.658;11.814;2023-02-28T22:07:43;16.70;64.74
61000;SHT31;46879;45.658;11.814;2023-02-28T22:12:44;16.70;64.69
61000;SHT31;46879;45.658;11.814;2023-02-28T22:17:44;16.65;64.59
61000;SHT31;46879;45.658;11.814;2023-02-28T22:22:45;16.67;64.57
61000;SHT31;46879;45.658;11.814;2023-02-28T22:27:46;16.68;64.47
61000;SHT31;46879;45.658;11.814;2023-02-28T22:32:46;16.64;64.13
61000;SHT31;46879;45.658;11.814;2023-02-28T22:37:47;16.65;63.95
61000;SHT31;46879;45.658;11.814;2023-02-28T22:42:48;16.65;63.77
61000;SHT31;46879;45.658;11.814;2023-02-28T22:47:48;16.65;63.59
61000;SHT31;46879;45.658;11.814;2023-02-28T22:52:49;16.61;63.42
61000;SHT31;46879;45.658;11.814;2023-02-28T22:57:49;16.64;63.37
61000;SHT31;46879;45.658;11.814;2023-02-28T23:02:50;16.63;63.14
61000;SHT31;46879;45.658;11.814;2023-02-28T23:07:50;16.63;63.38
61000;SHT31;46879;45.658;11.814;2023-02-28T23:12:51;16.67;63.36
61000;SHT31;46879;45.658;11.814;2023-02-28T23:17:52;16.60;63.52
61000;SHT31;46879;45.658;11.814;2023-02-28T23:22:53;16.56;63.90
61000;SHT31;46879;45.658;11.814;2023-02-28T23:27:54;16.54;64.03
61000;SHT31;46879;45.658;11.814;2023-02-28T23:32:55;16.56;64.37
61000;SHT31;46879;45.658;11.814;2023-02-28T23:37:56;16.54;64.49
61000;SHT31;46879;45.658;11.814;2023-02-28T23:42:58;16.52;64.61
61000;SHT31;46879;45.658;11.814;2023-02-28T23:47:58;16.53;64.83
61000;SHT31;46879;45.658;11.814;2023-02-28T23:52:59;16.49;64.85
61000;SHT31;46879;45.658;11.814;2023-02-28T23:57:59;16.50;65.00
